Arabi, Louisiana
Current Conditions -  °F | °C
As of 4:55 PM on Thursday 18 Dec 2014 (Local Time) from KVSH Reporting Station
Scattered Clouds Scattered Clouds  
Wind Chill: 64°   Ceiling: Unl
Heat Index: 64°   Visibility: 10mi
Dew Point: 54°   Wind: 6mph
Humidity: 68%   Direction: 130°SE
Pressure: 30.11"   Gusts: NA
Location:  29.95°N, 90.01°W
Report Text: KVSH 182255Z AUTO 13005KT 10SM FEW023 SCT095 18/12 A3011 RMK AO1
Loading
Personal Weather Stations






























Interactive Weather Map New forecast layout! Learn more

10-Day Weather Forecast

Advertisements
Track Severe Weather on mobile